Schauwetter-Station
Messdaten von gestern: Stunden-Messdaten

Mittelwerte bzw. Summen
06.08.20Sensoren
ZeitTA200TA020RH200WV250WD250GR000TS005TS020AP150TS050RAIN LW100LW100LW100
00:00 11.7 11.7 99.9 0.0 0.0 9990.0 20.1 20.9 966.2 20.6 0.0 0.0 0.0 0.0
01:00 11.2 11.3 99.9 0.0 0.0 9990.0 19.9 20.9 966.2 20.6 0.0 0.0 0.0 0.0
02:00 11.0 11.1 99.9 0.0 0.0 9990.0 19.6 20.8 966.1 20.6 0.0 5.5 0.0 0.0
03:00 10.9 11.0 99.9 0.0 0.0 9990.0 19.4 20.7 966.3 20.6 0.0 100.0 0.0 0.0
04:00 11.0 11.0 99.9 0.0 0.0 9990.0 19.2 20.6 966.5 20.6 0.0 100.0 0.0 0.0
05:00 11.7 11.5 99.9 0.0 0.0 9990.0 19.0 20.5 966.5 20.6 0.0 100.0 0.0 0.0
06:00 15.0 14.1 92.6 0.4 53.4 9990.0 18.8 20.5 967.0 20.6 0.0 100.0 0.0 0.0
07:00 17.4 16.8 73.3 0.5 74.6 9990.0 18.8 20.4 967.3 20.6 0.0 18.8 0.0 0.0
08:00 19.6 20.9 65.0 0.9 105.4 9990.0 18.9 20.3 967.6 20.5 0.0 0.0 0.0 0.0
09:00 21.3 22.8 58.8 0.8 82.1 9990.0 19.4 20.2 967.7 20.5 0.0 0.0 0.0 0.0
10:00 22.9 24.6 52.0 1.2 90.5 9990.0 20.0 20.2 967.7 20.5 0.0 0.0 0.0 0.0
11:00 24.0 25.5 46.9 1.0 80.4 9990.0 20.6 20.2 967.6 20.5 0.0 0.0 0.0 0.0
12:00 24.6 26.0 44.2 1.4 77.9 9990.0 21.3 20.2 967.4 20.5 0.0 0.0 0.0 0.0
13:00 25.8 27.1 41.5 1.3 85.7 9990.0 22.2 20.3 967.1 20.5 0.0 0.0 0.0 0.0
14:00 26.6 27.6 40.1 1.3 92.7 9990.0 22.9 20.5 966.9 20.5 0.0 0.0 0.0 0.0
15:00 26.8 27.6 39.4 1.0 94.4 9990.0 23.5 20.6 966.7 20.5 0.0 0.0 0.0 0.0
16:00 26.6 27.1 39.8 1.1 82.2 9990.0 23.9 20.9 966.5 20.4 0.0 0.0 0.0 0.0
17:00 26.3 26.2 40.2 0.9 101.3 9990.0 24.0 21.1 966.4 20.4 0.0 0.0 0.0 0.0
18:00 25.4 24.2 43.4 0.5 94.0 9990.0 23.8 21.3 966.6 20.4 0.0 0.0 0.0 0.0
19:00 22.0 20.7 64.7 0.0 0.0 9990.0 23.4 21.5 967.0 20.4 0.0 0.0 0.0 0.0
20:00 18.5 18.3 96.3 0.0 0.0 9990.0 23.1 21.6 967.4 20.5 0.0 96.5 0.0 0.0
21:00 17.2 16.8 99.9 0.0 0.0 9990.0 22.7 21.6 967.8 20.5 0.0 100.0 0.0 0.0
22:00 16.3 16.1 99.9 0.0 347.9 9990.0 22.3 21.6 967.9 20.5 0.0 100.0 0.0 0.0
23:00 15.8 15.6 99.9 0.0 0.0 9990.0 22.0 21.6 967.7 20.5 0.0 100.0 0.0 0.0

Legende: Sensoren an Station 2
KurzbezeichnungBeschreibung
TA200Lufttemperatur in 2 m Höhe [°C] (fehlerhaft, Lüfter defekt)
TA020Lufttemperatur in 0,2 m Höhe [°C] (fehlerhaft, Lüfter defekt)
RH200Relative Luftfeuchte in 2 m Höhe [%]
WV250Windgeschwindigkeit in 2,5 m Höhe [m/s]
WD250Windrichtung in 2,5 m Höhe [0 ° =N, 90 ° =O]
GR000Globalstrahlung in 2 m Höhe (z.Z. defekt) [W/m²]
TS005Bodentemperatur in 5 cm Tiefe [°C]
TS020Bodentemperatur in 20 cm Tiefe [°C]
AP150Athmosphärischer Luftdruck [hPa]
TS050Bodentemperatur in 50 cm Tiefe [°C]
RAIN Niederschlag [mm]
LW100Blattnässe [trocken = 0%]
LW100Blattnässe 1 im Obstbaum [trocken = 0%] (nicht angeschlossen)
LW100Blattnässe 2 im Obstbaum [trocken = 0%] (nicht angeschlossen)